createdAt,value
2022-12-22T00:03:44.485Z,7.09
2022-12-22T00:09:07.348Z,7.09
2022-12-22T00:14:28.263Z,7.07
2022-12-22T00:19:48.704Z,7.07
2022-12-22T00:25:09.013Z,7.07
2022-12-22T00:30:36.010Z,7.06
2022-12-22T00:35:56.314Z,7.07
2022-12-22T00:41:19.123Z,7.08
2022-12-22T00:46:42.392Z,7.08
2022-12-22T00:52:05.158Z,7.10
2022-12-22T00:57:32.154Z,7.11
2022-12-22T01:02:52.687Z,7.13
2022-12-22T01:08:13.682Z,7.14
2022-12-22T01:13:34.761Z,7.16
2022-12-22T01:18:55.628Z,7.16
2022-12-22T01:24:15.986Z,7.16
2022-12-22T01:29:36.958Z,7.16
2022-12-22T01:34:57.787Z,7.15
2022-12-22T01:40:18.151Z,7.16
2022-12-22T01:45:41.993Z,7.16
2022-12-22T01:51:02.470Z,7.16
2022-12-22T01:56:24.539Z,7.16
2022-12-22T02:01:48.232Z,7.15
2022-12-22T02:07:12.407Z,7.15
2022-12-22T02:13:02.897Z,7.17
2022-12-22T02:18:23.468Z,7.18
2022-12-22T02:24:21.007Z,7.19
2022-12-22T02:29:47.804Z,7.18
2022-12-22T02:35:11.096Z,7.19
2022-12-22T02:40:51.359Z,7.19
2022-12-22T02:46:28.941Z,7.18
2022-12-22T02:51:52.201Z,7.18
2022-12-22T02:57:14.921Z,7.19
2022-12-22T03:02:35.436Z,7.20
2022-12-22T03:07:56.169Z,7.20
2022-12-22T03:13:18.109Z,7.20
2022-12-22T03:18:38.044Z,7.22
2022-12-22T03:23:58.555Z,7.21
2022-12-22T03:29:01.174Z,7.21
2022-12-22T03:34:03.468Z,7.23
2022-12-22T03:39:10.161Z,7.23
2022-12-22T03:44:33.199Z,7.24
2022-12-22T03:49:37.145Z,7.26
2022-12-22T03:54:46.177Z,7.28
2022-12-22T03:59:50.102Z,7.29
2022-12-22T04:04:51.728Z,7.31
2022-12-22T04:10:17.922Z,7.32
2022-12-22T04:15:19.872Z,7.35
2022-12-22T04:20:23.862Z,7.35
2022-12-22T04:25:26.332Z,7.38
2022-12-22T04:30:27.976Z,7.38
2022-12-22T04:35:36.030Z,7.38
2022-12-22T04:40:41.957Z,7.37
2022-12-22T04:45:44.860Z,7.39
2022-12-22T04:50:50.868Z,7.39
2022-12-22T04:56:00.215Z,7.41
2022-12-22T05:01:13.202Z,7.41
2022-12-22T05:06:16.254Z,7.43
2022-12-22T05:11:21.592Z,7.42
2022-12-22T05:16:25.877Z,7.43
2022-12-22T05:21:27.626Z,7.43
2022-12-22T05:26:32.534Z,7.46
2022-12-22T05:31:40.727Z,7.45
2022-12-22T05:36:49.052Z,7.46
2022-12-22T05:41:50.803Z,7.45
2022-12-22T05:46:52.971Z,7.44
2022-12-22T05:51:57.453Z,7.46
2022-12-22T05:56:59.163Z,7.47
2022-12-22T06:02:00.919Z,7.45
2022-12-22T06:07:08.872Z,7.44
2022-12-22T06:12:13.041Z,7.41
2022-12-22T06:17:17.925Z,7.34
2022-12-22T06:22:19.593Z,7.21
2022-12-22T06:27:23.363Z,7.11
2022-12-22T06:32:29.698Z,7.03
2022-12-22T06:37:33.640Z,7.06
2022-12-22T06:42:59.608Z,7.12
2022-12-22T06:48:06.565Z,7.13
2022-12-22T06:53:09.542Z,7.11
2022-12-22T06:58:13.662Z,6.98
2022-12-22T07:03:20.643Z,6.88
2022-12-22T07:08:25.641Z,6.79
2022-12-22T07:13:34.161Z,6.65
2022-12-22T07:18:39.510Z,6.62
2022-12-22T07:23:48.165Z,6.57
2022-12-22T07:28:52.503Z,6.72
2022-12-22T07:33:54.380Z,6.81
2022-12-22T07:38:56.243Z,6.74
2022-12-22T07:44:01.683Z,6.72
2022-12-22T07:49:23.318Z,6.82
2022-12-22T07:54:30.407Z,6.83
2022-12-22T07:59:35.164Z,6.78
2022-12-22T08:04:36.986Z,6.74
2022-12-22T08:09:38.955Z,6.52
2022-12-22T08:14:45.855Z,6.29
2022-12-22T08:19:57.798Z,6.13
2022-12-22T08:24:59.531Z,6.15
2022-12-22T08:30:05.094Z,6.05
2022-12-22T08:35:08.071Z,6.01
2022-12-22T08:40:14.621Z,6.24
2022-12-22T08:45:18.652Z,6.45
2022-12-22T08:50:22.582Z,6.61
2022-12-22T08:55:28.413Z,6.68
2022-12-22T09:00:30.342Z,6.71
2022-12-22T09:05:40.304Z,6.76
2022-12-22T09:10:45.347Z,6.82
2022-12-22T09:15:51.862Z,6.76
2022-12-22T09:20:56.987Z,6.65
2022-12-22T09:26:10.442Z,6.63
2022-12-22T09:31:12.725Z,6.65
2022-12-22T09:36:19.134Z,6.66
2022-12-22T09:41:38.007Z,6.66
2022-12-22T09:46:44.447Z,6.65
2022-12-22T09:51:52.923Z,6.62
2022-12-22T09:56:59.185Z,6.62
2022-12-22T10:02:15.274Z,6.75
2022-12-22T10:07:34.357Z,6.73
2022-12-22T10:12:36.157Z,6.67
2022-12-22T10:17:43.496Z,6.56
2022-12-22T10:22:58.902Z,6.65
2022-12-22T10:28:09.275Z,6.62
2022-12-22T10:33:19.251Z,6.44
2022-12-22T10:38:32.523Z,6.39
2022-12-22T10:43:37.815Z,6.49
2022-12-22T10:48:41.800Z,6.82
2022-12-22T10:53:49.294Z,7.07
2022-12-22T10:59:10.406Z,7.25
2022-12-22T11:04:29.105Z,7.51
2022-12-22T11:09:35.341Z,7.75
2022-12-22T11:14:58.657Z,7.93
2022-12-22T11:20:31.352Z,7.78
2022-12-22T11:25:49.782Z,7.70
2022-12-22T11:31:19.584Z,7.46
2022-12-22T11:36:46.851Z,7.50
2022-12-22T11:42:15.511Z,7.37
2022-12-22T11:47:17.250Z,7.33
2022-12-22T11:52:35.709Z,7.37
2022-12-22T11:57:43.260Z,7.45
2022-12-22T12:03:00.156Z,8.36
2022-12-22T12:08:20.977Z,7.98
2022-12-22T12:13:37.379Z,8.97
2022-12-22T12:18:46.317Z,9.42
2022-12-22T12:24:15.566Z,9.25
2022-12-22T12:29:21.983Z,8.52
2022-12-22T12:34:24.611Z,8.30
2022-12-22T12:39:38.431Z,8.00
2022-12-22T12:44:42.923Z,7.92
2022-12-22T12:49:55.130Z,7.67
2022-12-22T12:55:31.328Z,7.41
2022-12-22T13:00:37.686Z,7.25
2022-12-22T13:05:52.594Z,7.34
2022-12-22T13:10:56.835Z,7.98
2022-12-22T13:16:03.221Z,8.51
2022-12-22T13:26:35.057Z,9.33
2022-12-22T13:31:45.259Z,9.71
2022-12-22T13:36:50.962Z,9.80
2022-12-22T13:41:53.843Z,9.82
2022-12-22T13:47:02.896Z,9.35
2022-12-22T13:52:17.406Z,8.73
2022-12-22T13:57:24.270Z,8.33
2022-12-22T14:02:32.367Z,8.15
2022-12-22T14:07:34.386Z,8.02
2022-12-22T14:12:45.080Z,7.98
2022-12-22T14:17:52.532Z,8.11
2022-12-22T14:23:06.250Z,7.86
2022-12-22T14:28:35.373Z,7.92
2022-12-22T14:33:39.399Z,7.64
2022-12-22T14:38:49.229Z,7.49
2022-12-22T14:43:51.053Z,7.36
2022-12-22T14:48:52.760Z,7.27
2022-12-22T14:53:57.969Z,7.27
2022-12-22T14:59:10.796Z,7.26
2022-12-22T15:04:20.297Z,7.23
2022-12-22T15:09:47.297Z,7.20
2022-12-22T15:14:49.808Z,7.16
2022-12-22T15:19:58.760Z,7.15
2022-12-22T15:25:00.871Z,7.14
2022-12-22T15:30:06.455Z,7.15
2022-12-22T15:35:24.424Z,7.14
2022-12-22T15:40:26.771Z,7.13
2022-12-22T15:45:30.090Z,7.14
2022-12-22T15:50:40.700Z,7.15
2022-12-22T15:55:49.308Z,7.18
2022-12-22T16:00:53.415Z,7.19
2022-12-22T16:05:55.452Z,7.42
2022-12-22T16:10:59.751Z,7.28
2022-12-22T16:16:04.408Z,7.15
2022-12-22T16:25:37.387Z,7.35
2022-12-22T16:30:40.141Z,7.19
2022-12-22T16:35:42.405Z,7.13
2022-12-22T16:40:46.760Z,7.09
2022-12-22T16:45:49.770Z,7.08
2022-12-22T16:50:54.364Z,7.07
2022-12-22T16:55:56.385Z,7.07
2022-12-22T17:01:01.247Z,7.04
2022-12-22T17:10:58.212Z,7.02
2022-12-22T17:16:01.721Z,7.03
2022-12-22T17:21:04.716Z,6.96
2022-12-22T17:26:08.644Z,6.94
2022-12-22T17:31:18.114Z,6.97
2022-12-22T17:36:34.713Z,6.99
2022-12-22T17:41:39.766Z,6.96
2022-12-22T17:46:41.908Z,6.92
2022-12-22T17:51:43.842Z,6.89
2022-12-22T17:56:48.019Z,6.89
2022-12-22T18:01:52.419Z,6.92
2022-12-22T18:06:56.104Z,6.94
2022-12-22T18:12:00.590Z,6.97
2022-12-22T18:17:04.816Z,6.97
2022-12-22T18:22:11.685Z,6.97
2022-12-22T18:27:15.300Z,6.99
2022-12-22T18:32:27.075Z,6.97
2022-12-22T18:37:29.537Z,7.00
2022-12-22T18:42:33.435Z,6.97
2022-12-22T18:47:40.469Z,6.96
2022-12-22T18:52:42.543Z,6.98
2022-12-22T18:57:50.017Z,7.00
2022-12-22T19:02:57.447Z,7.02
2022-12-22T19:08:01.974Z,7.04
2022-12-22T19:13:08.471Z,7.04
2022-12-22T19:18:22.640Z,7.05
2022-12-22T19:23:30.226Z,7.01
2022-12-22T19:28:38.358Z,7.00
2022-12-22T19:33:42.784Z,6.98
2022-12-22T19:38:49.838Z,6.97
2022-12-22T19:43:54.874Z,6.97
2022-12-22T19:48:59.304Z,6.97
2022-12-22T19:54:01.287Z,6.98
2022-12-22T19:59:08.462Z,6.97
2022-12-22T20:04:13.651Z,6.95
2022-12-22T20:09:15.419Z,6.90
2022-12-22T20:14:19.532Z,6.82
2022-12-22T20:19:24.617Z,6.76
2022-12-22T20:24:31.301Z,6.74
2022-12-22T20:29:34.184Z,6.75
2022-12-22T20:34:38.270Z,6.73
2022-12-22T20:39:42.497Z,6.71
2022-12-22T20:45:02.899Z,6.68
2022-12-22T20:50:26.244Z,6.68
2022-12-22T20:55:28.857Z,6.66
2022-12-22T21:00:31.870Z,6.69
2022-12-22T21:05:33.674Z,6.71
2022-12-22T21:10:38.211Z,6.69
2022-12-22T21:15:42.765Z,6.67
2022-12-22T21:20:46.496Z,6.70
2022-12-22T21:25:52.907Z,6.71
2022-12-22T21:30:57.106Z,6.71
2022-12-22T21:36:00.018Z,6.65
2022-12-22T21:41:06.620Z,6.61
2022-12-22T21:46:14.193Z,6.57
2022-12-22T21:51:16.020Z,6.58
2022-12-22T21:56:19.269Z,6.56
2022-12-22T22:01:23.355Z,6.52
2022-12-22T22:06:27.921Z,6.48
2022-12-22T22:11:54.534Z,6.48
2022-12-22T22:16:58.468Z,6.47
2022-12-22T22:22:03.032Z,6.43
2022-12-22T22:27:08.203Z,6.42
2022-12-22T22:32:14.491Z,6.38
2022-12-22T22:37:16.174Z,6.35
2022-12-22T22:42:18.925Z,6.36
2022-12-22T22:47:20.859Z,6.35
2022-12-22T22:52:22.517Z,6.36
2022-12-22T22:57:29.631Z,6.37
2022-12-22T23:02:33.978Z,6.39
2022-12-22T23:07:36.448Z,6.37
2022-12-22T23:12:39.160Z,6.36
2022-12-22T23:17:45.421Z,6.34
2022-12-22T23:22:47.161Z,6.37
2022-12-22T23:27:49.035Z,6.35
2022-12-22T23:32:50.785Z,6.33
2022-12-22T23:37:52.430Z,6.32
2022-12-22T23:42:57.337Z,6.31
2022-12-22T23:48:00.227Z,6.31
2022-12-22T23:53:02.007Z,6.32
2022-12-22T23:58:06.844Z,6.33
